sensor_id;sensor_type;location;lat;lon;timestamp;P1;durP1;ratioP1;P2;durP2;ratioP2
45318;SDS011;31057;48.498;32.260;2022-07-06T00:01:26;8.80;;;6.32;;
45318;SDS011;31057;48.498;32.260;2022-07-06T00:04:28;15.23;;;6.43;;
45318;SDS011;31057;48.498;32.260;2022-07-06T00:07:31;9.57;;;6.80;;
45318;SDS011;31057;48.498;32.260;2022-07-06T00:10:33;9.60;;;5.88;;
45318;SDS011;31057;48.498;32.260;2022-07-06T00:13:35;9.98;;;6.65;;
45318;SDS011;31057;48.498;32.260;2022-07-06T00:16:37;9.52;;;6.35;;
45318;SDS011;31057;48.498;32.260;2022-07-06T00:19:39;10.00;;;6.90;;
45318;SDS011;31057;48.498;32.260;2022-07-06T00:22:41;12.43;;;7.70;;
45318;SDS011;31057;48.498;32.260;2022-07-06T00:25:43;12.35;;;6.72;;
45318;SDS011;31057;48.498;32.260;2022-07-06T00:28:46;11.67;;;7.03;;
45318;SDS011;31057;48.498;32.260;2022-07-06T00:31:48;9.55;;;6.47;;
45318;SDS011;31057;48.498;32.260;2022-07-06T00:34:50;7.85;;;6.65;;
45318;SDS011;31057;48.498;32.260;2022-07-06T00:37:52;11.27;;;7.20;;
45318;SDS011;31057;48.498;32.260;2022-07-06T00:40:54;9.80;;;6.97;;
45318;SDS011;31057;48.498;32.260;2022-07-06T00:43:56;9.80;;;7.15;;
45318;SDS011;31057;48.498;32.260;2022-07-06T00:46:58;11.55;;;7.20;;
45318;SDS011;31057;48.498;32.260;2022-07-06T00:50:01;10.77;;;7.90;;
45318;SDS011;31057;48.498;32.260;2022-07-06T00:53:16;10.00;;;6.88;;
45318;SDS011;31057;48.498;32.260;2022-07-06T00:56:19;10.97;;;7.57;;
45318;SDS011;31057;48.498;32.260;2022-07-06T00:59:22;9.13;;;6.90;;
45318;SDS011;31057;48.498;32.260;2022-07-06T01:02:25;15.52;;;7.43;;
45318;SDS011;31057;48.498;32.260;2022-07-06T01:05:27;11.75;;;7.43;;
45318;SDS011;31057;48.498;32.260;2022-07-06T01:08:30;22.10;;;7.50;;
45318;SDS011;31057;48.498;32.260;2022-07-06T01:11:33;9.05;;;6.65;;
45318;SDS011;31057;48.498;32.260;2022-07-06T01:14:35;8.30;;;6.75;;
45318;SDS011;31057;48.498;32.260;2022-07-06T01:20:40;9.73;;;7.18;;
45318;SDS011;31057;48.498;32.260;2022-07-06T01:23:43;11.35;;;6.93;;
45318;SDS011;31057;48.498;32.260;2022-07-06T01:26:46;10.13;;;7.40;;
45318;SDS011;31057;48.498;32.260;2022-07-06T01:29:48;8.48;;;6.80;;
45318;SDS011;31057;48.498;32.260;2022-07-06T01:32:50;12.52;;;6.68;;
45318;SDS011;31057;48.498;32.260;2022-07-06T01:35:52;11.02;;;7.70;;
45318;SDS011;31057;48.498;32.260;2022-07-06T01:38:55;19.60;;;8.90;;
45318;SDS011;31057;48.498;32.260;2022-07-06T01:42:00;18.15;;;9.20;;
45318;SDS011;31057;48.498;32.260;2022-07-06T01:45:03;14.57;;;8.77;;
45318;SDS011;31057;48.498;32.260;2022-07-06T01:48:06;13.77;;;8.60;;
45318;SDS011;31057;48.498;32.260;2022-07-06T01:51:09;12.55;;;8.85;;
45318;SDS011;31057;48.498;32.260;2022-07-06T01:54:11;9.93;;;8.50;;
45318;SDS011;31057;48.498;32.260;2022-07-06T01:57:13;12.75;;;7.47;;
45318;SDS011;31057;48.498;32.260;2022-07-06T02:00:15;11.57;;;7.78;;
45318;SDS011;31057;48.498;32.260;2022-07-06T02:03:17;10.60;;;7.25;;
45318;SDS011;31057;48.498;32.260;2022-07-06T02:06:19;11.95;;;7.57;;
45318;SDS011;31057;48.498;32.260;2022-07-06T02:09:21;9.82;;;7.45;;
45318;SDS011;31057;48.498;32.260;2022-07-06T02:12:23;11.38;;;7.70;;
45318;SDS011;31057;48.498;32.260;2022-07-06T02:15:24;10.40;;;7.57;;
45318;SDS011;31057;48.498;32.260;2022-07-06T02:18:26;10.32;;;8.00;;
45318;SDS011;31057;48.498;32.260;2022-07-06T02:21:29;17.90;;;8.93;;
45318;SDS011;31057;48.498;32.260;2022-07-06T02:24:31;16.60;;;8.95;;
45318;SDS011;31057;48.498;32.260;2022-07-06T02:27:33;13.45;;;8.80;;
45318;SDS011;31057;48.498;32.260;2022-07-06T02:30:35;11.68;;;8.07;;
45318;SDS011;31057;48.498;32.260;2022-07-06T02:33:37;14.82;;;9.15;;
45318;SDS011;31057;48.498;32.260;2022-07-06T02:36:39;14.70;;;9.48;;
45318;SDS011;31057;48.498;32.260;2022-07-06T02:39:41;13.15;;;8.98;;
45318;SDS011;31057;48.498;32.260;2022-07-06T02:42:43;10.10;;;8.20;;
45318;SDS011;31057;48.498;32.260;2022-07-06T02:45:45;12.30;;;7.32;;
45318;SDS011;31057;48.498;32.260;2022-07-06T02:48:47;13.07;;;7.88;;
45318;SDS011;31057;48.498;32.260;2022-07-06T02:51:49;15.53;;;9.60;;
45318;SDS011;31057;48.498;32.260;2022-07-06T02:54:51;16.58;;;9.35;;
45318;SDS011;31057;48.498;32.260;2022-07-06T02:57:54;20.33;;;7.80;;
45318;SDS011;31057;48.498;32.260;2022-07-06T03:00:56;13.68;;;9.05;;
45318;SDS011;31057;48.498;32.260;2022-07-06T03:03:58;14.93;;;10.05;;
45318;SDS011;31057;48.498;32.260;2022-07-06T03:07:00;17.65;;;9.57;;
45318;SDS011;31057;48.498;32.260;2022-07-06T03:10:02;11.82;;;8.07;;
45318;SDS011;31057;48.498;32.260;2022-07-06T03:13:04;17.20;;;7.82;;
45318;SDS011;31057;48.498;32.260;2022-07-06T03:16:06;11.73;;;7.88;;
45318;SDS011;31057;48.498;32.260;2022-07-06T03:19:08;15.63;;;8.35;;
45318;SDS011;31057;48.498;32.260;2022-07-06T03:22:10;18.08;;;8.10;;
45318;SDS011;31057;48.498;32.260;2022-07-06T03:25:12;13.38;;;7.88;;
45318;SDS011;31057;48.498;32.260;2022-07-06T03:28:14;10.68;;;7.35;;
45318;SDS011;31057;48.498;32.260;2022-07-06T03:31:16;11.20;;;8.18;;
45318;SDS011;31057;48.498;32.260;2022-07-06T03:34:18;16.53;;;7.57;;
45318;SDS011;31057;48.498;32.260;2022-07-06T03:37:20;13.95;;;7.72;;
45318;SDS011;31057;48.498;32.260;2022-07-06T03:40:22;15.88;;;8.52;;
45318;SDS011;31057;48.498;32.260;2022-07-06T03:43:24;10.98;;;7.95;;
45318;SDS011;31057;48.498;32.260;2022-07-06T03:46:27;16.97;;;8.00;;
45318;SDS011;31057;48.498;32.260;2022-07-06T03:49:30;13.02;;;7.97;;
45318;SDS011;31057;48.498;32.260;2022-07-06T03:52:32;13.93;;;8.63;;
45318;SDS011;31057;48.498;32.260;2022-07-06T03:55:35;16.00;;;8.27;;
45318;SDS011;31057;48.498;32.260;2022-07-06T03:58:37;12.38;;;8.52;;
45318;SDS011;31057;48.498;32.260;2022-07-06T04:01:40;19.42;;;7.68;;
45318;SDS011;31057;48.498;32.260;2022-07-06T04:04:42;12.20;;;8.40;;
45318;SDS011;31057;48.498;32.260;2022-07-06T04:07:44;16.40;;;8.00;;
45318;SDS011;31057;48.498;32.260;2022-07-06T04:10:46;14.60;;;9.45;;
45318;SDS011;31057;48.498;32.260;2022-07-06T04:13:48;25.60;;;9.48;;
45318;SDS011;31057;48.498;32.260;2022-07-06T04:16:50;17.98;;;8.68;;
45318;SDS011;31057;48.498;32.260;2022-07-06T04:19:52;18.52;;;8.70;;
45318;SDS011;31057;48.498;32.260;2022-07-06T04:22:54;21.65;;;9.55;;
45318;SDS011;31057;48.498;32.260;2022-07-06T04:25:56;17.83;;;9.88;;
45318;SDS011;31057;48.498;32.260;2022-07-06T04:28:58;20.90;;;10.63;;
45318;SDS011;31057;48.498;32.260;2022-07-06T04:32:00;17.15;;;9.98;;
45318;SDS011;31057;48.498;32.260;2022-07-06T04:35:02;18.75;;;10.82;;
45318;SDS011;31057;48.498;32.260;2022-07-06T04:38:06;15.93;;;10.68;;
45318;SDS011;31057;48.498;32.260;2022-07-06T04:41:08;21.25;;;10.15;;
45318;SDS011;31057;48.498;32.260;2022-07-06T04:44:09;22.35;;;12.10;;
45318;SDS011;31057;48.498;32.260;2022-07-06T04:47:12;17.05;;;10.75;;
45318;SDS011;31057;48.498;32.260;2022-07-06T04:50:15;24.15;;;10.10;;
45318;SDS011;31057;48.498;32.260;2022-07-06T04:53:17;25.58;;;10.48;;
45318;SDS011;31057;48.498;32.260;2022-07-06T04:56:19;26.10;;;10.50;;
45318;SDS011;31057;48.498;32.260;2022-07-06T04:59:21;27.42;;;13.27;;
45318;SDS011;31057;48.498;32.260;2022-07-06T05:02:23;22.47;;;10.70;;
45318;SDS011;31057;48.498;32.260;2022-07-06T05:05:25;16.67;;;8.93;;
45318;SDS011;31057;48.498;32.260;2022-07-06T05:08:27;12.75;;;9.55;;
45318;SDS011;31057;48.498;32.260;2022-07-06T05:11:29;13.52;;;11.10;;
45318;SDS011;31057;48.498;32.260;2022-07-06T05:14:31;10.68;;;8.48;;
45318;SDS011;31057;48.498;32.260;2022-07-06T05:17:33;15.02;;;8.95;;
45318;SDS011;31057;48.498;32.260;2022-07-06T05:20:35;20.17;;;9.37;;
45318;SDS011;31057;48.498;32.260;2022-07-06T05:23:37;15.10;;;9.30;;
45318;SDS011;31057;48.498;32.260;2022-07-06T05:26:39;16.95;;;8.70;;
45318;SDS011;31057;48.498;32.260;2022-07-06T05:29:41;20.17;;;8.57;;
45318;SDS011;31057;48.498;32.260;2022-07-06T05:32:43;16.48;;;8.90;;
45318;SDS011;31057;48.498;32.260;2022-07-06T05:35:44;12.32;;;8.85;;
45318;SDS011;31057;48.498;32.260;2022-07-06T05:38:52;14.63;;;8.43;;
45318;SDS011;31057;48.498;32.260;2022-07-06T05:41:54;14.57;;;8.23;;
45318;SDS011;31057;48.498;32.260;2022-07-06T05:44:56;18.13;;;8.73;;
45318;SDS011;31057;48.498;32.260;2022-07-06T05:47:58;17.03;;;8.87;;
45318;SDS011;31057;48.498;32.260;2022-07-06T05:51:18;14.30;;;8.30;;
45318;SDS011;31057;48.498;32.260;2022-07-06T05:54:20;13.80;;;9.07;;
45318;SDS011;31057;48.498;32.260;2022-07-06T05:57:22;15.13;;;9.03;;
45318;SDS011;31057;48.498;32.260;2022-07-06T06:00:24;13.93;;;8.97;;
45318;SDS011;31057;48.498;32.260;2022-07-06T06:03:27;16.55;;;8.45;;
45318;SDS011;31057;48.498;32.260;2022-07-06T06:06:29;11.57;;;8.33;;
45318;SDS011;31057;48.498;32.260;2022-07-06T06:09:32;13.55;;;9.60;;
45318;SDS011;31057;48.498;32.260;2022-07-06T06:12:34;10.10;;;8.93;;
45318;SDS011;31057;48.498;32.260;2022-07-06T06:15:36;13.75;;;8.68;;
45318;SDS011;31057;48.498;32.260;2022-07-06T06:18:38;13.17;;;9.37;;
45318;SDS011;31057;48.498;32.260;2022-07-06T06:21:43;15.45;;;8.38;;
45318;SDS011;31057;48.498;32.260;2022-07-06T06:24:44;13.70;;;8.80;;
45318;SDS011;31057;48.498;32.260;2022-07-06T06:27:47;12.40;;;8.25;;
45318;SDS011;31057;48.498;32.260;2022-07-06T06:30:49;14.07;;;8.03;;
45318;SDS011;31057;48.498;32.260;2022-07-06T06:33:51;18.27;;;9.77;;
45318;SDS011;31057;48.498;32.260;2022-07-06T06:36:54;10.93;;;9.35;;
45318;SDS011;31057;48.498;32.260;2022-07-06T06:39:56;14.23;;;8.70;;
45318;SDS011;31057;48.498;32.260;2022-07-06T06:42:58;15.03;;;8.90;;
45318;SDS011;31057;48.498;32.260;2022-07-06T06:46:00;13.00;;;8.47;;
45318;SDS011;31057;48.498;32.260;2022-07-06T06:49:02;17.00;;;8.43;;
45318;SDS011;31057;48.498;32.260;2022-07-06T06:52:04;13.37;;;7.83;;
45318;SDS011;31057;48.498;32.260;2022-07-06T06:55:26;13.80;;;9.73;;
45318;SDS011;31057;48.498;32.260;2022-07-06T06:58:28;13.33;;;8.20;;
45318;SDS011;31057;48.498;32.260;2022-07-06T07:01:50;10.38;;;8.27;;
45318;SDS011;31057;48.498;32.260;2022-07-06T07:04:56;16.42;;;8.70;;
45318;SDS011;31057;48.498;32.260;2022-07-06T07:07:59;13.02;;;7.82;;
45318;SDS011;31057;48.498;32.260;2022-07-06T07:11:05;14.18;;;8.48;;
45318;SDS011;31057;48.498;32.260;2022-07-06T07:14:07;13.03;;;7.97;;
45318;SDS011;31057;48.498;32.260;2022-07-06T07:17:09;11.27;;;7.90;;
45318;SDS011;31057;48.498;32.260;2022-07-06T07:20:12;10.43;;;8.50;;
45318;SDS011;31057;48.498;32.260;2022-07-06T07:23:14;12.03;;;8.60;;
45318;SDS011;31057;48.498;32.260;2022-07-06T07:26:16;11.27;;;7.97;;
45318;SDS011;31057;48.498;32.260;2022-07-06T07:29:19;10.10;;;7.28;;
45318;SDS011;31057;48.498;32.260;2022-07-06T07:32:21;8.63;;;7.32;;
45318;SDS011;31057;48.498;32.260;2022-07-06T07:35:23;9.00;;;8.10;;
45318;SDS011;31057;48.498;32.260;2022-07-06T07:38:25;17.03;;;9.07;;
45318;SDS011;31057;48.498;32.260;2022-07-06T07:41:28;16.08;;;7.70;;
45318;SDS011;31057;48.498;32.260;2022-07-06T07:44:30;23.50;;;8.38;;
45318;SDS011;31057;48.498;32.260;2022-07-06T07:47:32;11.95;;;7.55;;
45318;SDS011;31057;48.498;32.260;2022-07-06T07:50:34;16.67;;;8.13;;
45318;SDS011;31057;48.498;32.260;2022-07-06T07:53:36;13.63;;;7.53;;
45318;SDS011;31057;48.498;32.260;2022-07-06T07:56:38;11.57;;;7.88;;
45318;SDS011;31057;48.498;32.260;2022-07-06T07:59:41;11.10;;;7.63;;
45318;SDS011;31057;48.498;32.260;2022-07-06T08:02:43;12.63;;;8.45;;
45318;SDS011;31057;48.498;32.260;2022-07-06T08:05:45;13.80;;;7.45;;
45318;SDS011;31057;48.498;32.260;2022-07-06T08:08:49;9.13;;;7.22;;
45318;SDS011;31057;48.498;32.260;2022-07-06T08:11:50;10.13;;;7.27;;
45318;SDS011;31057;48.498;32.260;2022-07-06T08:14:52;10.30;;;6.65;;
45318;SDS011;31057;48.498;32.260;2022-07-06T08:17:54;12.82;;;7.35;;
45318;SDS011;31057;48.498;32.260;2022-07-06T08:20:56;12.48;;;7.35;;
45318;SDS011;31057;48.498;32.260;2022-07-06T08:24:18;10.98;;;7.05;;
45318;SDS011;31057;48.498;32.260;2022-07-06T08:27:21;12.55;;;10.23;;
45318;SDS011;31057;48.498;32.260;2022-07-06T08:30:23;10.93;;;6.68;;
45318;SDS011;31057;48.498;32.260;2022-07-06T08:33:25;14.60;;;7.72;;
45318;SDS011;31057;48.498;32.260;2022-07-06T08:36:28;13.65;;;8.25;;
45318;SDS011;31057;48.498;32.260;2022-07-06T08:39:30;8.00;;;7.07;;
45318;SDS011;31057;48.498;32.260;2022-07-06T08:42:33;12.48;;;7.53;;
45318;SDS011;31057;48.498;32.260;2022-07-06T08:45:36;15.48;;;7.20;;
45318;SDS011;31057;48.498;32.260;2022-07-06T08:51:41;11.15;;;6.95;;
45318;SDS011;31057;48.498;32.260;2022-07-06T08:54:44;9.88;;;7.32;;
45318;SDS011;31057;48.498;32.260;2022-07-06T08:57:46;11.02;;;7.63;;
45318;SDS011;31057;48.498;32.260;2022-07-06T09:00:49;11.90;;;8.00;;
45318;SDS011;31057;48.498;32.260;2022-07-06T09:03:51;10.10;;;6.70;;
45318;SDS011;31057;48.498;32.260;2022-07-06T09:06:55;12.02;;;7.45;;
45318;SDS011;31057;48.498;32.260;2022-07-06T09:09:58;14.70;;;7.43;;
45318;SDS011;31057;48.498;32.260;2022-07-06T09:13:02;7.30;;;6.28;;
45318;SDS011;31057;48.498;32.260;2022-07-06T09:16:12;9.98;;;7.07;;
45318;SDS011;31057;48.498;32.260;2022-07-06T09:19:35;7.30;;;6.60;;
45318;SDS011;31057;48.498;32.260;2022-07-06T09:22:37;11.18;;;6.82;;
45318;SDS011;31057;48.498;32.260;2022-07-06T09:25:40;11.23;;;6.80;;
45318;SDS011;31057;48.498;32.260;2022-07-06T09:28:43;7.25;;;6.55;;
45318;SDS011;31057;48.498;32.260;2022-07-06T09:31:55;17.83;;;7.65;;
45318;SDS011;31057;48.498;32.260;2022-07-06T09:34:58;7.53;;;6.60;;
45318;SDS011;31057;48.498;32.260;2022-07-06T09:38:04;13.05;;;7.47;;
45318;SDS011;31057;48.498;32.260;2022-07-06T09:41:29;10.48;;;6.82;;
45318;SDS011;31057;48.498;32.260;2022-07-06T09:44:33;9.35;;;6.85;;
45318;SDS011;31057;48.498;32.260;2022-07-06T09:47:38;7.22;;;6.45;;
45318;SDS011;31057;48.498;32.260;2022-07-06T09:50:43;10.32;;;7.78;;
45318;SDS011;31057;48.498;32.260;2022-07-06T09:53:50;11.48;;;6.63;;
45318;SDS011;31057;48.498;32.260;2022-07-06T09:56:53;8.88;;;6.15;;
45318;SDS011;31057;48.498;32.260;2022-07-06T09:59:56;10.65;;;6.05;;
45318;SDS011;31057;48.498;32.260;2022-07-06T10:03:00;7.47;;;5.60;;
45318;SDS011;31057;48.498;32.260;2022-07-06T10:06:02;13.20;;;5.50;;
45318;SDS011;31057;48.498;32.260;2022-07-06T10:09:05;8.65;;;5.45;;
45318;SDS011;31057;48.498;32.260;2022-07-06T10:12:13;8.00;;;4.40;;
45318;SDS011;31057;48.498;32.260;2022-07-06T10:15:18;10.13;;;5.05;;
45318;SDS011;31057;48.498;32.260;2022-07-06T10:18:22;13.85;;;5.35;;
45318;SDS011;31057;48.498;32.260;2022-07-06T10:21:25;9.60;;;5.60;;
45318;SDS011;31057;48.498;32.260;2022-07-06T10:27:30;9.97;;;5.60;;
45318;SDS011;31057;48.498;32.260;2022-07-06T10:30:34;12.02;;;6.75;;
45318;SDS011;31057;48.498;32.260;2022-07-06T10:33:36;10.75;;;5.03;;
45318;SDS011;31057;48.498;32.260;2022-07-06T10:36:41;10.40;;;4.80;;
45318;SDS011;31057;48.498;32.260;2022-07-06T10:39:44;13.63;;;6.40;;
45318;SDS011;31057;48.498;32.260;2022-07-06T10:43:08;7.07;;;5.55;;
45318;SDS011;31057;48.498;32.260;2022-07-06T10:49:15;7.88;;;5.25;;
45318;SDS011;31057;48.498;32.260;2022-07-06T10:52:57;5.47;;;4.47;;
45318;SDS011;31057;48.498;32.260;2022-07-06T10:56:01;6.93;;;5.00;;
45318;SDS011;31057;48.498;32.260;2022-07-06T10:59:12;6.65;;;4.20;;
45318;SDS011;31057;48.498;32.260;2022-07-06T11:02:16;12.05;;;4.88;;
45318;SDS011;31057;48.498;32.260;2022-07-06T11:09:08;11.95;;;5.45;;
45318;SDS011;31057;48.498;32.260;2022-07-06T11:12:15;7.63;;;5.75;;
45318;SDS011;31057;48.498;32.260;2022-07-06T11:18:58;13.68;;;5.13;;
45318;SDS011;31057;48.498;32.260;2022-07-06T11:22:11;6.15;;;4.43;;
45318;SDS011;31057;48.498;32.260;2022-07-06T11:25:17;7.10;;;5.20;;
45318;SDS011;31057;48.498;32.260;2022-07-06T11:28:20;9.57;;;4.93;;
45318;SDS011;31057;48.498;32.260;2022-07-06T11:31:23;8.20;;;5.30;;
45318;SDS011;31057;48.498;32.260;2022-07-06T11:34:26;8.65;;;5.43;;
45318;SDS011;31057;48.498;32.260;2022-07-06T11:37:29;6.78;;;5.93;;
45318;SDS011;31057;48.498;32.260;2022-07-06T11:40:31;12.77;;;5.40;;
45318;SDS011;31057;48.498;32.260;2022-07-06T11:43:39;10.32;;;5.50;;
45318;SDS011;31057;48.498;32.260;2022-07-06T11:46:44;7.35;;;5.55;;
45318;SDS011;31057;48.498;32.260;2022-07-06T11:49:49;6.93;;;5.15;;
45318;SDS011;31057;48.498;32.260;2022-07-06T11:52:53;8.95;;;5.28;;
45318;SDS011;31057;48.498;32.260;2022-07-06T11:55:55;17.38;;;5.90;;
45318;SDS011;31057;48.498;32.260;2022-07-06T11:59:04;11.15;;;6.50;;
45318;SDS011;31057;48.498;32.260;2022-07-06T12:02:07;11.43;;;6.63;;
45318;SDS011;31057;48.498;32.260;2022-07-06T12:05:28;17.45;;;6.53;;
45318;SDS011;31057;48.498;32.260;2022-07-06T12:08:40;17.65;;;5.70;;
45318;SDS011;31057;48.498;32.260;2022-07-06T12:11:44;8.50;;;5.57;;
45318;SDS011;31057;48.498;32.260;2022-07-06T12:14:51;10.05;;;5.57;;
45318;SDS011;31057;48.498;32.260;2022-07-06T12:17:54;9.68;;;5.18;;
45318;SDS011;31057;48.498;32.260;2022-07-06T12:20:56;12.75;;;6.20;;
45318;SDS011;31057;48.498;32.260;2022-07-06T12:23:58;12.57;;;6.28;;
45318;SDS011;31057;48.498;32.260;2022-07-06T12:27:13;12.32;;;5.97;;
45318;SDS011;31057;48.498;32.260;2022-07-06T12:30:17;9.93;;;7.30;;
45318;SDS011;31057;48.498;32.260;2022-07-06T12:33:23;11.30;;;6.03;;
45318;SDS011;31057;48.498;32.260;2022-07-06T12:36:29;7.10;;;5.70;;
45318;SDS011;31057;48.498;32.260;2022-07-06T12:39:39;13.50;;;6.20;;
45318;SDS011;31057;48.498;32.260;2022-07-06T12:42:51;9.60;;;5.97;;
45318;SDS011;31057;48.498;32.260;2022-07-06T12:48:56;8.77;;;5.70;;
45318;SDS011;31057;48.498;32.260;2022-07-06T12:55:08;15.75;;;6.28;;
45318;SDS011;31057;48.498;32.260;2022-07-06T12:58:19;11.88;;;6.95;;
45318;SDS011;31057;48.498;32.260;2022-07-06T13:01:21;6.22;;;5.63;;
45318;SDS011;31057;48.498;32.260;2022-07-06T13:04:24;10.43;;;6.53;;
45318;SDS011;31057;48.498;32.260;2022-07-06T13:07:29;7.35;;;5.45;;
45318;SDS011;31057;48.498;32.260;2022-07-06T13:10:33;9.77;;;7.45;;
45318;SDS011;31057;48.498;32.260;2022-07-06T13:13:43;9.10;;;5.72;;
45318;SDS011;31057;48.498;32.260;2022-07-06T13:16:46;10.50;;;6.00;;
45318;SDS011;31057;48.498;32.260;2022-07-06T13:19:49;8.10;;;5.85;;
45318;SDS011;31057;48.498;32.260;2022-07-06T13:22:52;12.98;;;6.47;;
45318;SDS011;31057;48.498;32.260;2022-07-06T13:25:54;6.95;;;6.03;;
45318;SDS011;31057;48.498;32.260;2022-07-06T13:28:56;17.45;;;6.90;;
45318;SDS011;31057;48.498;32.260;2022-07-06T13:31:58;11.18;;;5.45;;
45318;SDS011;31057;48.498;32.260;2022-07-06T13:35:00;7.32;;;5.45;;
45318;SDS011;31057;48.498;32.260;2022-07-06T13:41:04;11.48;;;5.88;;
45318;SDS011;31057;48.498;32.260;2022-07-06T13:44:07;9.55;;;5.93;;
45318;SDS011;31057;48.498;32.260;2022-07-06T13:47:15;12.20;;;7.90;;
45318;SDS011;31057;48.498;32.260;2022-07-06T13:50:17;17.20;;;6.15;;
45318;SDS011;31057;48.498;32.260;2022-07-06T13:56:21;9.30;;;6.78;;
45318;SDS011;31057;48.498;32.260;2022-07-06T14:02:25;16.15;;;6.15;;
45318;SDS011;31057;48.498;32.260;2022-07-06T14:08:29;9.60;;;5.63;;
45318;SDS011;31057;48.498;32.260;2022-07-06T14:11:32;14.70;;;6.13;;
45318;SDS011;31057;48.498;32.260;2022-07-06T14:14:34;11.02;;;6.65;;
45318;SDS011;31057;48.498;32.260;2022-07-06T14:17:36;11.48;;;6.57;;
45318;SDS011;31057;48.498;32.260;2022-07-06T14:20:38;18.23;;;6.30;;
45318;SDS011;31057;48.498;32.260;2022-07-06T14:23:40;15.40;;;7.22;;
45318;SDS011;31057;48.498;32.260;2022-07-06T14:26:41;17.10;;;6.63;;
45318;SDS011;31057;48.498;32.260;2022-07-06T14:29:44;9.02;;;7.00;;
45318;SDS011;31057;48.498;32.260;2022-07-06T14:32:46;13.00;;;7.97;;
45318;SDS011;31057;48.498;32.260;2022-07-06T14:35:49;16.08;;;7.38;;
45318;SDS011;31057;48.498;32.260;2022-07-06T14:38:52;21.60;;;8.50;;
45318;SDS011;31057;48.498;32.260;2022-07-06T14:41:54;13.30;;;8.20;;
45318;SDS011;31057;48.498;32.260;2022-07-06T14:45:00;19.08;;;7.60;;
45318;SDS011;31057;48.498;32.260;2022-07-06T14:48:04;15.82;;;7.00;;
45318;SDS011;31057;48.498;32.260;2022-07-06T14:51:07;9.80;;;7.53;;
45318;SDS011;31057;48.498;32.260;2022-07-06T14:57:11;15.43;;;7.70;;
45318;SDS011;31057;48.498;32.260;2022-07-06T15:00:13;17.50;;;8.73;;
45318;SDS011;31057;48.498;32.260;2022-07-06T15:03:16;10.32;;;8.05;;
45318;SDS011;31057;48.498;32.260;2022-07-06T15:06:18;17.30;;;8.85;;
45318;SDS011;31057;48.498;32.260;2022-07-06T15:09:40;15.80;;;8.33;;
45318;SDS011;31057;48.498;32.260;2022-07-06T15:12:42;16.83;;;8.73;;
45318;SDS011;31057;48.498;32.260;2022-07-06T15:15:44;21.73;;;9.30;;
45318;SDS011;31057;48.498;32.260;2022-07-06T15:18:58;14.90;;;7.88;;
45318;SDS011;31057;48.498;32.260;2022-07-06T15:22:00;9.13;;;7.72;;
45318;SDS011;31057;48.498;32.260;2022-07-06T15:28:04;13.60;;;7.25;;
45318;SDS011;31057;48.498;32.260;2022-07-06T15:31:07;11.85;;;7.32;;
45318;SDS011;31057;48.498;32.260;2022-07-06T15:34:09;19.85;;;7.97;;
45318;SDS011;31057;48.498;32.260;2022-07-06T15:37:11;20.17;;;7.57;;
45318;SDS011;31057;48.498;32.260;2022-07-06T15:40:13;13.02;;;7.60;;
45318;SDS011;31057;48.498;32.260;2022-07-06T15:43:18;14.35;;;8.02;;
45318;SDS011;31057;48.498;32.260;2022-07-06T15:46:20;8.45;;;7.60;;
45318;SDS011;31057;48.498;32.260;2022-07-06T15:49:25;11.25;;;7.75;;
45318;SDS011;31057;48.498;32.260;2022-07-06T15:52:26;14.95;;;7.70;;
45318;SDS011;31057;48.498;32.260;2022-07-06T15:55:28;16.25;;;9.05;;
45318;SDS011;31057;48.498;32.260;2022-07-06T15:58:31;14.00;;;8.65;;
45318;SDS011;31057;48.498;32.260;2022-07-06T16:01:32;16.15;;;8.25;;
45318;SDS011;31057;48.498;32.260;2022-07-06T16:07:36;31.83;;;9.43;;
45318;SDS011;31057;48.498;32.260;2022-07-06T16:10:59;16.95;;;7.85;;
45318;SDS011;31057;48.498;32.260;2022-07-06T16:14:01;15.15;;;8.20;;
45318;SDS011;31057;48.498;32.260;2022-07-06T16:17:03;10.05;;;8.77;;
45318;SDS011;31057;48.498;32.260;2022-07-06T16:20:05;25.95;;;8.73;;
45318;SDS011;31057;48.498;32.260;2022-07-06T16:23:08;16.55;;;9.27;;
45318;SDS011;31057;48.498;32.260;2022-07-06T16:26:10;23.38;;;8.55;;
45318;SDS011;31057;48.498;32.260;2022-07-06T16:29:12;23.40;;;8.70;;
45318;SDS011;31057;48.498;32.260;2022-07-06T16:32:14;16.25;;;7.93;;
45318;SDS011;31057;48.498;32.260;2022-07-06T16:38:18;28.73;;;8.83;;
45318;SDS011;31057;48.498;32.260;2022-07-06T16:41:20;24.30;;;8.48;;
45318;SDS011;31057;48.498;32.260;2022-07-06T16:44:22;20.20;;;8.48;;
45318;SDS011;31057;48.498;32.260;2022-07-06T16:50:26;23.00;;;9.63;;
45318;SDS011;31057;48.498;32.260;2022-07-06T16:53:28;15.07;;;7.40;;
45318;SDS011;31057;48.498;32.260;2022-07-06T16:56:33;18.13;;;7.80;;
45318;SDS011;31057;48.498;32.260;2022-07-06T16:59:35;22.42;;;9.68;;
45318;SDS011;31057;48.498;32.260;2022-07-06T17:02:37;14.20;;;8.25;;
45318;SDS011;31057;48.498;32.260;2022-07-06T17:08:41;15.33;;;8.27;;
45318;SDS011;31057;48.498;32.260;2022-07-06T17:14:45;24.07;;;9.20;;
45318;SDS011;31057;48.498;32.260;2022-07-06T17:17:47;26.88;;;9.52;;
45318;SDS011;31057;48.498;32.260;2022-07-06T17:20:50;22.23;;;8.25;;
45318;SDS011;31057;48.498;32.260;2022-07-06T17:23:52;13.38;;;9.95;;
45318;SDS011;31057;48.498;32.260;2022-07-06T17:26:54;25.85;;;9.50;;
45318;SDS011;31057;48.498;32.260;2022-07-06T17:29:56;21.85;;;9.85;;
45318;SDS011;31057;48.498;32.260;2022-07-06T17:32:58;26.02;;;9.93;;
45318;SDS011;31057;48.498;32.260;2022-07-06T17:36:00;22.95;;;10.20;;
45318;SDS011;31057;48.498;32.260;2022-07-06T17:42:04;19.48;;;9.43;;
45318;SDS011;31057;48.498;32.260;2022-07-06T17:45:08;20.92;;;10.23;;
45318;SDS011;31057;48.498;32.260;2022-07-06T17:48:10;25.75;;;10.45;;
45318;SDS011;31057;48.498;32.260;2022-07-06T17:51:12;25.17;;;10.35;;
45318;SDS011;31057;48.498;32.260;2022-07-06T17:54:14;19.08;;;10.85;;
45318;SDS011;31057;48.498;32.260;2022-07-06T17:57:16;20.83;;;10.25;;
45318;SDS011;31057;48.498;32.260;2022-07-06T18:00:18;25.40;;;11.33;;
45318;SDS011;31057;48.498;32.260;2022-07-06T18:03:20;32.83;;;11.18;;
45318;SDS011;31057;48.498;32.260;2022-07-06T18:06:22;21.13;;;12.38;;
45318;SDS011;31057;48.498;32.260;2022-07-06T18:09:24;19.63;;;12.27;;
45318;SDS011;31057;48.498;32.260;2022-07-06T18:12:26;17.15;;;12.13;;
45318;SDS011;31057;48.498;32.260;2022-07-06T18:15:28;18.70;;;11.93;;
45318;SDS011;31057;48.498;32.260;2022-07-06T18:18:30;23.52;;;11.98;;
45318;SDS011;31057;48.498;32.260;2022-07-06T18:21:33;14.82;;;11.65;;
45318;SDS011;31057;48.498;32.260;2022-07-06T18:24:35;23.15;;;12.93;;
45318;SDS011;31057;48.498;32.260;2022-07-06T18:27:37;20.88;;;11.32;;
45318;SDS011;31057;48.498;32.260;2022-07-06T18:30:39;15.80;;;10.70;;
45318;SDS011;31057;48.498;32.260;2022-07-06T18:33:41;18.73;;;12.07;;
45318;SDS011;31057;48.498;32.260;2022-07-06T18:36:43;24.23;;;11.07;;
45318;SDS011;31057;48.498;32.260;2022-07-06T18:39:45;22.58;;;10.98;;
45318;SDS011;31057;48.498;32.260;2022-07-06T18:42:48;20.75;;;11.10;;
45318;SDS011;31057;48.498;32.260;2022-07-06T18:45:50;22.53;;;11.53;;
45318;SDS011;31057;48.498;32.260;2022-07-06T18:48:52;26.10;;;12.25;;
45318;SDS011;31057;48.498;32.260;2022-07-06T18:51:55;15.15;;;10.75;;
45318;SDS011;31057;48.498;32.260;2022-07-06T18:54:57;21.40;;;11.23;;
45318;SDS011;31057;48.498;32.260;2022-07-06T18:57:59;15.10;;;10.82;;